createdAt,value
2023-01-20T00:00:01.682Z,67.36
2023-01-20T00:02:28.470Z,68.16
2023-01-20T00:04:55.271Z,67.14
2023-01-20T00:07:22.313Z,68.26
2023-01-20T00:09:49.268Z,68.42
2023-01-20T00:12:16.511Z,68.63
2023-01-20T00:14:43.230Z,66.82
2023-01-20T00:17:09.909Z,66.67
2023-01-20T00:19:36.701Z,67.47
2023-01-20T00:22:03.485Z,66.79
2023-01-20T00:24:30.177Z,67.00
2023-01-20T00:26:56.935Z,66.86
2023-01-20T00:29:23.996Z,66.71
2023-01-20T00:31:50.752Z,66.49
2023-01-20T00:34:17.430Z,65.77
2023-01-20T00:36:44.417Z,64.84
2023-01-20T00:39:11.228Z,65.37
2023-01-20T00:41:38.130Z,65.36
2023-01-20T00:44:05.125Z,65.04
2023-01-20T00:46:31.871Z,65.15
2023-01-20T00:48:58.707Z,64.71
2023-01-20T00:51:25.535Z,64.93
2023-01-20T00:53:52.315Z,64.00
2023-01-20T00:56:19.082Z,62.87
2023-01-20T00:58:45.890Z,63.13
2023-01-20T01:01:13.173Z,63.79
2023-01-20T01:03:40.216Z,63.93
2023-01-20T01:06:17.723Z,64.05
2023-01-20T01:08:45.228Z,64.22
2023-01-20T01:11:13.310Z,63.30
2023-01-20T01:13:40.338Z,64.00
2023-01-20T01:16:15.163Z,63.54
2023-01-20T01:18:42.437Z,63.67
2023-01-20T01:21:11.425Z,64.78
2023-01-20T01:23:38.138Z,64.35
2023-01-20T01:26:05.007Z,64.40
2023-01-20T01:28:32.017Z,64.46
2023-01-20T01:31:04.101Z,64.49
2023-01-20T01:33:31.354Z,63.66
2023-01-20T01:36:02.992Z,63.78
2023-01-20T01:38:29.918Z,64.38
2023-01-20T01:40:56.955Z,64.22
2023-01-20T01:43:25.760Z,64.68
2023-01-20T01:45:53.065Z,65.05
2023-01-20T01:48:28.420Z,65.34
2023-01-20T01:51:07.628Z,65.35
2023-01-20T01:53:41.835Z,64.76
2023-01-20T01:56:10.248Z,63.39
2023-01-20T01:58:41.134Z,63.55
2023-01-20T02:01:08.056Z,63.76
2023-01-20T02:03:56.843Z,62.79
2023-01-20T02:06:26.141Z,64.61
2023-01-20T02:08:53.381Z,63.24
2023-01-20T02:11:20.240Z,62.92
2023-01-20T02:13:47.177Z,63.08
2023-01-20T02:16:40.584Z,62.78
2023-01-20T02:19:25.134Z,62.16
2023-01-20T02:22:00.972Z,62.51
2023-01-20T02:24:48.913Z,61.45
2023-01-20T02:27:54.530Z,61.04
2023-01-20T02:30:57.551Z,61.34
2023-01-20T02:33:53.268Z,61.37
2023-01-20T02:36:25.884Z,61.62
2023-01-20T02:39:27.052Z,61.56
2023-01-20T02:42:00.451Z,62.27
2023-01-20T02:44:54.968Z,61.22
2023-01-20T02:47:21.588Z,61.66
2023-01-20T02:49:55.449Z,62.05
2023-01-20T02:52:28.436Z,62.26
2023-01-20T02:54:59.543Z,61.87
2023-01-20T02:57:31.303Z,63.24
2023-01-20T03:00:05.669Z,64.79
2023-01-20T03:02:36.070Z,65.36
2023-01-20T03:05:08.833Z,65.69
2023-01-20T03:07:38.880Z,66.34
2023-01-20T03:10:10.405Z,67.44
2023-01-20T03:12:42.667Z,68.44
2023-01-20T03:15:10.967Z,68.85
2023-01-20T03:17:37.967Z,69.04
2023-01-20T03:20:05.527Z,70.40
2023-01-20T03:22:32.649Z,71.12
2023-01-20T03:25:00.039Z,73.21
2023-01-20T03:27:27.311Z,74.88
2023-01-20T03:29:54.332Z,75.65
2023-01-20T03:32:27.054Z,76.07
2023-01-20T03:34:56.020Z,77.45
2023-01-20T03:37:23.408Z,77.79
2023-01-20T03:39:51.138Z,78.27
2023-01-20T03:42:31.881Z,80.01
2023-01-20T03:45:23.648Z,80.80
2023-01-20T03:48:06.850Z,81.37
2023-01-20T03:50:55.240Z,83.73
2023-01-20T03:53:45.623Z,86.14
2023-01-20T03:56:19.346Z,86.55
2023-01-20T03:58:50.541Z,85.70
2023-01-20T04:01:21.339Z,86.93
2023-01-20T04:03:52.252Z,88.28
2023-01-20T04:06:21.780Z,88.27
2023-01-20T04:08:56.737Z,88.55
2023-01-20T04:11:24.398Z,89.30
2023-01-20T04:13:51.525Z,88.30
2023-01-20T04:16:19.882Z,87.24
2023-01-20T04:18:49.665Z,88.34
2023-01-20T04:21:22.876Z,88.88
2023-01-20T04:24:08.269Z,88.29
2023-01-20T04:26:35.152Z,89.31
2023-01-20T04:29:10.458Z,90.66
2023-01-20T04:31:38.828Z,90.00
2023-01-20T04:34:06.609Z,91.19
2023-01-20T04:36:33.335Z,92.02
2023-01-20T04:39:00.190Z,91.74
2023-01-20T04:41:27.117Z,92.01
2023-01-20T04:43:53.865Z,92.35
2023-01-20T04:46:20.607Z,93.78
2023-01-20T04:48:47.491Z,93.15
2023-01-20T04:51:15.415Z,92.46
2023-01-20T04:53:42.274Z,94.00
2023-01-20T04:56:13.424Z,94.34
2023-01-20T04:58:40.735Z,94.74
2023-01-20T05:01:08.308Z,95.84
2023-01-20T05:03:35.635Z,96.49
2023-01-20T05:06:03.317Z,95.80
2023-01-20T05:08:30.176Z,95.82
2023-01-20T05:10:56.946Z,97.79
2023-01-20T05:13:23.915Z,96.98
2023-01-20T05:15:51.146Z,96.98
2023-01-20T05:18:18.313Z,97.21
2023-01-20T05:20:46.645Z,97.64
2023-01-20T05:23:13.845Z,97.83
2023-01-20T05:25:40.825Z,97.93
2023-01-20T05:28:09.295Z,98.09
2023-01-20T05:30:36.383Z,97.78
2023-01-20T05:33:03.293Z,95.49
2023-01-20T05:35:31.891Z,95.02
2023-01-20T05:37:58.684Z,92.73
2023-01-20T05:40:25.420Z,90.90
2023-01-20T05:42:52.205Z,88.85
2023-01-20T05:45:19.123Z,87.27
2023-01-20T05:47:46.005Z,86.33
2023-01-20T05:50:12.961Z,84.46
2023-01-20T05:52:39.863Z,82.65
2023-01-20T05:55:06.857Z,81.69
2023-01-20T05:57:36.716Z,80.43
2023-01-20T06:00:05.117Z,79.05
2023-01-20T06:02:31.944Z,78.25
2023-01-20T06:05:01.786Z,77.05
2023-01-20T06:07:29.803Z,76.14
2023-01-20T06:09:57.116Z,74.55
2023-01-20T06:12:24.792Z,72.60
2023-01-20T06:14:51.553Z,72.78
2023-01-20T06:17:18.481Z,71.43
2023-01-20T06:19:45.292Z,70.97
2023-01-20T06:22:15.644Z,69.52
2023-01-20T06:24:42.498Z,68.46
2023-01-20T06:27:09.709Z,68.21
2023-01-20T06:29:36.518Z,67.79
2023-01-20T06:32:03.784Z,68.77
2023-01-20T06:34:30.911Z,69.48
2023-01-20T06:36:58.480Z,68.70
2023-01-20T06:39:25.392Z,67.96
2023-01-20T06:41:52.241Z,67.42
2023-01-20T06:44:18.976Z,67.25
2023-01-20T06:46:48.197Z,67.09
2023-01-20T06:49:15.324Z,67.58
2023-01-20T06:51:42.021Z,68.30
2023-01-20T06:54:08.937Z,66.33
2023-01-20T06:56:36.025Z,66.50
2023-01-20T06:59:02.985Z,66.76
2023-01-20T07:01:31.429Z,65.45
2023-01-20T07:03:58.952Z,65.62
2023-01-20T07:06:40.633Z,66.59
2023-01-20T07:09:10.245Z,65.05
2023-01-20T07:11:37.361Z,65.78
2023-01-20T07:14:05.375Z,66.41
2023-01-20T07:16:32.233Z,67.55
2023-01-20T07:18:59.070Z,67.78
2023-01-20T07:21:26.677Z,67.87
2023-01-20T07:23:53.799Z,68.06
2023-01-20T07:26:23.072Z,67.65
2023-01-20T07:28:50.402Z,65.45
2023-01-20T07:31:18.688Z,64.39
2023-01-20T07:33:46.076Z,65.09
2023-01-20T07:36:15.463Z,65.71
2023-01-20T07:38:44.887Z,65.56
2023-01-20T07:41:16.413Z,65.44
2023-01-20T07:43:44.569Z,62.75
2023-01-20T07:46:12.194Z,64.46
2023-01-20T07:48:40.546Z,65.01
2023-01-20T07:51:09.779Z,64.96
2023-01-20T07:53:42.096Z,65.10
2023-01-20T07:56:11.971Z,64.68
2023-01-20T07:58:39.228Z,65.64
2023-01-20T08:01:09.343Z,64.98
2023-01-20T08:03:36.394Z,64.32
2023-01-20T08:06:08.263Z,65.50
2023-01-20T08:08:36.354Z,66.01
2023-01-20T08:11:06.311Z,66.61
2023-01-20T08:13:33.485Z,66.49
2023-01-20T08:16:01.665Z,66.29
2023-01-20T08:18:28.959Z,66.54
2023-01-20T08:20:56.239Z,66.46
2023-01-20T08:23:23.210Z,66.60
2023-01-20T08:25:51.734Z,66.86
2023-01-20T08:28:18.455Z,68.29
2023-01-20T08:30:45.437Z,67.84
2023-01-20T08:33:12.234Z,66.72
2023-01-20T08:35:39.061Z,66.67
2023-01-20T08:38:06.864Z,66.31
2023-01-20T08:40:35.056Z,66.46
2023-01-20T08:43:02.238Z,66.51
2023-01-20T08:45:29.232Z,66.90
2023-01-20T08:47:59.184Z,66.86
2023-01-20T08:50:26.153Z,65.64
2023-01-20T08:52:53.027Z,66.25
2023-01-20T08:55:19.811Z,66.83
2023-01-20T08:57:49.756Z,68.17
2023-01-20T09:00:17.846Z,68.40
2023-01-20T09:02:44.622Z,68.95
2023-01-20T09:05:11.779Z,67.74
2023-01-20T09:07:38.917Z,69.91
2023-01-20T09:10:06.465Z,71.72
2023-01-20T09:12:33.450Z,71.96
2023-01-20T09:15:00.150Z,73.10
2023-01-20T09:17:27.036Z,75.74
2023-01-20T09:19:54.711Z,78.59
2023-01-20T09:22:21.649Z,81.59
2023-01-20T09:24:48.604Z,85.90
2023-01-20T09:27:17.005Z,92.75
2023-01-20T09:29:44.141Z,92.63
2023-01-20T09:32:13.122Z,95.59
2023-01-20T09:34:39.893Z,96.90
2023-01-20T09:37:25.289Z,98.96
2023-01-20T09:40:10.805Z,100.00
2023-01-20T09:43:14.561Z,100.00
2023-01-20T09:46:01.329Z,100.00
2023-01-20T09:49:11.122Z,100.00
2023-01-20T09:51:56.742Z,100.00
2023-01-20T09:54:34.274Z,100.00
2023-01-20T09:57:03.111Z,100.00
2023-01-20T09:59:44.064Z,100.00
2023-01-20T10:02:18.193Z,99.59
2023-01-20T10:04:54.991Z,99.72
2023-01-20T10:07:32.512Z,95.98
2023-01-20T10:10:10.943Z,93.26
2023-01-20T10:12:42.878Z,96.88
2023-01-20T10:15:29.919Z,98.25
2023-01-20T10:18:20.117Z,99.64
2023-01-20T10:21:12.334Z,99.51
2023-01-20T10:23:54.072Z,100.00
2023-01-20T10:26:22.751Z,100.00
2023-01-20T10:29:04.309Z,99.44
2023-01-20T10:31:43.044Z,100.00
2023-01-20T10:34:21.325Z,99.44
2023-01-20T10:37:03.508Z,98.88
2023-01-20T10:39:50.337Z,100.00
2023-01-20T10:42:20.501Z,100.00
2023-01-20T10:44:50.177Z,100.00
2023-01-20T10:48:04.836Z,100.00
2023-01-20T10:50:54.624Z,97.56
2023-01-20T10:53:33.835Z,100.00
2023-01-20T10:56:26.018Z,100.00
2023-01-20T10:58:52.715Z,90.70
2023-01-20T11:01:28.571Z,89.67
2023-01-20T11:03:55.276Z,94.69
2023-01-20T11:06:27.010Z,93.54
2023-01-20T11:08:55.311Z,92.46
2023-01-20T11:11:25.033Z,91.86
2023-01-20T11:13:53.071Z,94.83
2023-01-20T11:16:23.455Z,96.70
2023-01-20T11:19:06.232Z,95.82
2023-01-20T11:21:36.880Z,93.93
2023-01-20T11:24:43.217Z,88.74
2023-01-20T11:27:22.411Z,89.80
2023-01-20T11:29:52.832Z,88.62
2023-01-20T11:32:35.418Z,90.06
2023-01-20T11:35:24.680Z,93.85
2023-01-20T11:37:52.553Z,94.38
2023-01-20T11:40:24.610Z,94.60
2023-01-20T11:42:53.642Z,91.71
2023-01-20T11:45:29.729Z,92.79
2023-01-20T11:48:06.138Z,93.30
2023-01-20T11:50:40.599Z,94.10
2023-01-20T11:53:19.551Z,91.69
2023-01-20T11:56:16.686Z,87.62
2023-01-20T11:58:54.680Z,91.78
2023-01-20T12:01:29.988Z,93.00
2023-01-20T12:04:17.736Z,94.44
2023-01-20T12:07:03.947Z,84.98
2023-01-20T12:09:37.705Z,82.76
2023-01-20T12:12:33.694Z,80.52
2023-01-20T12:15:06.236Z,77.87
2023-01-20T12:17:36.364Z,79.22
2023-01-20T12:20:03.529Z,80.69
2023-01-20T12:22:59.666Z,79.13
2023-01-20T12:25:30.945Z,78.90
2023-01-20T12:28:04.557Z,76.29
2023-01-20T12:30:37.601Z,77.33
2023-01-20T12:33:05.356Z,76.78
2023-01-20T12:35:41.863Z,77.77
2023-01-20T12:38:09.386Z,78.13
2023-01-20T12:40:46.264Z,77.03
2023-01-20T12:43:27.154Z,75.18
2023-01-20T12:46:04.332Z,75.54
2023-01-20T12:48:37.210Z,75.63
2023-01-20T12:51:07.429Z,75.79
2023-01-20T12:54:47.380Z,74.92
2023-01-20T12:57:32.350Z,74.46
2023-01-20T13:00:33.287Z,74.06
2023-01-20T13:03:23.916Z,74.25
2023-01-20T13:06:40.784Z,73.50
2023-01-20T13:09:35.759Z,72.55
2023-01-20T13:12:12.579Z,72.34
2023-01-20T13:14:43.895Z,71.77
2023-01-20T13:17:30.818Z,71.74
2023-01-20T13:20:02.052Z,72.44
2023-01-20T13:22:30.399Z,73.62
2023-01-20T13:25:05.007Z,73.88
2023-01-20T13:27:37.784Z,74.64
2023-01-20T13:30:06.922Z,74.75
2023-01-20T13:32:48.507Z,74.84
2023-01-20T13:35:18.027Z,75.45
2023-01-20T13:37:51.963Z,77.95
2023-01-20T13:40:36.963Z,81.74
2023-01-20T13:43:05.420Z,82.42
2023-01-20T13:45:32.187Z,84.47
2023-01-20T13:48:08.525Z,85.38
2023-01-20T13:50:37.270Z,87.39
2023-01-20T13:53:23.115Z,89.53
2023-01-20T13:55:52.365Z,89.87
2023-01-20T13:58:48.887Z,91.72
2023-01-20T14:01:15.817Z,90.80
2023-01-20T14:03:43.019Z,90.51
2023-01-20T14:06:11.309Z,90.46
2023-01-20T14:08:43.954Z,90.68
2023-01-20T14:11:16.572Z,90.41
2023-01-20T14:13:52.605Z,91.60
2023-01-20T14:16:30.034Z,93.65
2023-01-20T14:19:20.036Z,93.08
2023-01-20T14:21:53.499Z,93.36
2023-01-20T14:24:32.792Z,92.98
2023-01-20T14:27:17.840Z,92.35
2023-01-20T14:29:49.031Z,92.12
2023-01-20T14:32:25.323Z,92.55
2023-01-20T14:34:53.310Z,95.52
2023-01-20T14:37:36.694Z,96.98
2023-01-20T14:40:27.222Z,96.29
2023-01-20T14:43:00.479Z,96.23
2023-01-20T14:45:32.910Z,97.90
2023-01-20T14:48:02.990Z,92.88
2023-01-20T14:50:33.887Z,94.66
2023-01-20T14:53:01.134Z,93.86
2023-01-20T14:55:44.391Z,95.53
2023-01-20T14:58:18.043Z,95.92
2023-01-20T15:00:47.234Z,91.01
2023-01-20T15:03:25.728Z,90.48
2023-01-20T15:06:20.587Z,92.13
2023-01-20T15:09:05.063Z,90.90
2023-01-20T15:11:33.013Z,88.46
2023-01-20T15:14:02.186Z,89.33
2023-01-20T15:16:46.782Z,91.05
2023-01-20T15:19:13.774Z,92.40
2023-01-20T15:21:56.427Z,88.66
2023-01-20T15:24:37.433Z,90.29
2023-01-20T15:27:22.016Z,86.60
2023-01-20T15:30:22.992Z,86.04
2023-01-20T15:32:51.460Z,87.20
2023-01-20T15:35:22.897Z,87.43
2023-01-20T15:37:50.388Z,85.97
2023-01-20T15:40:20.566Z,87.42
2023-01-20T15:42:48.898Z,87.36
2023-01-20T15:45:16.651Z,88.50
2023-01-20T15:47:45.863Z,89.36
2023-01-20T15:50:19.935Z,90.97
2023-01-20T15:52:47.181Z,91.46
2023-01-20T15:55:19.668Z,88.75
2023-01-20T15:57:50.388Z,90.18
2023-01-20T16:00:20.007Z,90.70
2023-01-20T16:02:47.385Z,91.22
2023-01-20T16:05:18.263Z,92.37
2023-01-20T16:07:47.963Z,90.79
2023-01-20T16:10:21.844Z,91.73
2023-01-20T16:12:49.096Z,93.05
2023-01-20T16:15:20.974Z,94.07
2023-01-20T16:17:48.055Z,94.17
2023-01-20T16:20:23.782Z,94.92
2023-01-20T16:22:52.029Z,93.74
2023-01-20T16:25:20.840Z,93.60
2023-01-20T16:27:48.171Z,94.02
2023-01-20T16:30:21.258Z,94.63
2023-01-20T16:32:48.852Z,94.70
2023-01-20T16:35:18.725Z,95.39
2023-01-20T16:37:47.652Z,94.90
2023-01-20T16:40:17.603Z,95.52
2023-01-20T16:42:45.708Z,94.50
2023-01-20T16:45:26.597Z,95.14
2023-01-20T16:47:53.998Z,96.79
2023-01-20T16:50:21.764Z,99.99
2023-01-20T16:52:51.768Z,100.00
2023-01-20T16:55:19.363Z,100.00
2023-01-20T16:57:46.777Z,100.00
2023-01-20T17:00:18.239Z,100.00
2023-01-20T17:02:50.392Z,100.00
2023-01-20T17:05:22.460Z,100.00
2023-01-20T17:07:50.433Z,100.00
2023-01-20T17:10:21.058Z,100.00
2023-01-20T17:12:49.084Z,100.00
2023-01-20T17:15:18.675Z,100.00
2023-01-20T17:17:54.879Z,100.00
2023-01-20T17:20:22.402Z,100.00
2023-01-20T17:22:49.381Z,100.00
2023-01-20T17:25:19.337Z,100.00
2023-01-20T17:27:46.577Z,100.00
2023-01-20T17:30:15.847Z,100.00
2023-01-20T17:32:48.048Z,100.00
2023-01-20T17:35:16.666Z,100.00
2023-01-20T17:37:43.807Z,100.00
2023-01-20T17:40:13.064Z,100.00
2023-01-20T17:42:40.441Z,100.00
2023-01-20T17:45:08.285Z,100.00
2023-01-20T17:47:35.300Z,100.00
2023-01-20T17:50:02.761Z,100.00
2023-01-20T17:52:30.169Z,100.00
2023-01-20T17:54:57.357Z,100.00
2023-01-20T17:57:26.794Z,100.00
2023-01-20T17:59:54.453Z,100.00
2023-01-20T18:02:22.565Z,100.00
2023-01-20T18:04:49.839Z,100.00
2023-01-20T18:07:17.278Z,100.00
2023-01-20T18:09:44.482Z,100.00
2023-01-20T18:12:11.311Z,100.00
2023-01-20T18:14:38.855Z,100.00
2023-01-20T18:17:05.878Z,100.00
2023-01-20T18:19:32.691Z,100.00
2023-01-20T18:22:02.019Z,100.00
2023-01-20T18:24:28.741Z,100.00
2023-01-20T18:26:57.790Z,100.00
2023-01-20T18:29:24.729Z,100.00
2023-01-20T18:31:51.579Z,100.00
2023-01-20T18:34:18.475Z,100.00
2023-01-20T18:36:46.405Z,100.00
2023-01-20T18:39:12.988Z,100.00
2023-01-20T18:41:40.279Z,100.00
2023-01-20T18:44:08.546Z,100.00
2023-01-20T18:46:36.506Z,100.00
2023-01-20T18:49:03.906Z,100.00
2023-01-20T18:51:32.162Z,100.00
2023-01-20T18:54:07.928Z,100.00
2023-01-20T18:56:35.658Z,100.00
2023-01-20T18:59:04.989Z,100.00
2023-01-20T19:01:34.960Z,100.00
2023-01-20T19:04:03.573Z,100.00
2023-01-20T19:06:34.612Z,100.00
2023-01-20T19:09:02.701Z,100.00
2023-01-20T19:11:32.568Z,100.00
2023-01-20T19:14:00.127Z,100.00
2023-01-20T19:16:33.083Z,100.00
2023-01-20T19:19:07.745Z,100.00
2023-01-20T19:21:36.983Z,100.00
2023-01-20T19:24:06.240Z,100.00
2023-01-20T19:26:35.784Z,100.00
2023-01-20T19:29:06.503Z,100.00
2023-01-20T19:31:37.059Z,100.00
2023-01-20T19:34:06.627Z,100.00
2023-01-20T19:36:34.349Z,100.00
2023-01-20T19:39:01.318Z,100.00
2023-01-20T19:41:33.506Z,100.00
2023-01-20T19:44:03.170Z,100.00
2023-01-20T19:46:33.083Z,100.00
2023-01-20T19:49:02.383Z,100.00
2023-01-20T19:51:31.680Z,100.00
2023-01-20T19:54:03.333Z,100.00
2023-01-20T19:56:32.631Z,100.00
2023-01-20T19:59:03.284Z,100.00
2023-01-20T20:01:34.951Z,100.00
2023-01-20T20:04:07.477Z,100.00
2023-01-20T20:06:36.778Z,100.00
2023-01-20T20:09:10.417Z,100.00
2023-01-20T20:11:37.944Z,100.00
2023-01-20T20:14:06.880Z,100.00
2023-01-20T20:16:36.127Z,100.00
2023-01-20T20:19:03.382Z,100.00
2023-01-20T20:21:30.590Z,100.00
2023-01-20T20:24:01.066Z,100.00
2023-01-20T20:26:31.088Z,100.00
2023-01-20T20:29:02.420Z,100.00
2023-01-20T20:31:30.245Z,100.00
2023-01-20T20:34:01.651Z,100.00
2023-01-20T20:36:31.086Z,100.00
2023-01-20T20:38:59.499Z,100.00
2023-01-20T20:41:29.331Z,100.00
2023-01-20T20:43:56.875Z,100.00
2023-01-20T20:46:24.527Z,100.00
2023-01-20T20:48:56.664Z,100.00
2023-01-20T20:51:24.265Z,100.00
2023-01-20T20:53:56.203Z,100.00
2023-01-20T20:56:24.630Z,100.00
2023-01-20T20:59:01.288Z,100.00
2023-01-20T21:01:30.734Z,100.00
2023-01-20T21:03:57.884Z,100.00
2023-01-20T21:06:25.604Z,100.00
2023-01-20T21:08:53.423Z,100.00
2023-01-20T21:11:20.454Z,100.00
2023-01-20T21:13:49.587Z,100.00
2023-01-20T21:16:22.243Z,100.00
2023-01-20T21:18:50.407Z,100.00
2023-01-20T21:21:20.067Z,100.00
2023-01-20T21:23:55.588Z,100.00
2023-01-20T21:26:24.061Z,100.00
2023-01-20T21:28:50.909Z,100.00
2023-01-20T21:31:23.531Z,100.00
2023-01-20T21:33:55.403Z,100.00
2023-01-20T21:36:23.086Z,100.00
2023-01-20T21:38:50.504Z,100.00
2023-01-20T21:41:18.299Z,100.00
2023-01-20T21:44:05.654Z,100.00
2023-01-20T21:46:39.178Z,100.00
2023-01-20T21:49:25.890Z,100.00
2023-01-20T21:52:11.379Z,100.00
2023-01-20T21:54:39.890Z,100.00
2023-01-20T21:57:07.073Z,100.00
2023-01-20T21:59:34.064Z,100.00
2023-01-20T22:02:01.286Z,100.00
2023-01-20T22:04:28.107Z,100.00
2023-01-20T22:06:54.811Z,100.00
2023-01-20T22:09:21.767Z,100.00
2023-01-20T22:11:49.696Z,100.00
2023-01-20T22:14:16.447Z,100.00
2023-01-20T22:16:43.205Z,100.00
2023-01-20T22:19:15.594Z,100.00
2023-01-20T22:21:42.771Z,100.00
2023-01-20T22:24:10.721Z,100.00
2023-01-20T22:26:37.543Z,100.00
2023-01-20T22:29:04.580Z,100.00
2023-01-20T22:31:34.051Z,100.00
2023-01-20T22:34:05.466Z,100.00
2023-01-20T22:36:34.590Z,100.00
2023-01-20T22:39:02.285Z,100.00
2023-01-20T22:41:32.231Z,100.00
2023-01-20T22:43:59.166Z,100.00
2023-01-20T22:46:27.634Z,100.00
2023-01-20T22:48:58.992Z,100.00
2023-01-20T22:51:28.252Z,100.00
2023-01-20T22:53:59.095Z,100.00
2023-01-20T22:56:28.009Z,100.00
2023-01-20T22:58:55.860Z,100.00
2023-01-20T23:01:31.954Z,100.00
2023-01-20T23:04:01.064Z,100.00
2023-01-20T23:06:47.977Z,100.00
2023-01-20T23:09:14.921Z,100.00
2023-01-20T23:11:42.147Z,100.00
2023-01-20T23:14:12.806Z,100.00
2023-01-20T23:16:40.771Z,100.00
2023-01-20T23:19:08.543Z,100.00
2023-01-20T23:21:35.840Z,100.00
2023-01-20T23:24:02.754Z,100.00
2023-01-20T23:26:31.119Z,100.00
2023-01-20T23:28:58.259Z,100.00
2023-01-20T23:31:26.103Z,100.00
2023-01-20T23:33:55.824Z,100.00
2023-01-20T23:36:24.873Z,100.00
2023-01-20T23:38:54.370Z,100.00
2023-01-20T23:41:21.756Z,100.00
2023-01-20T23:43:49.068Z,100.00
2023-01-20T23:46:16.171Z,100.00
2023-01-20T23:48:45.826Z,100.00
2023-01-20T23:51:13.117Z,100.00
2023-01-20T23:53:41.007Z,100.00
2023-01-20T23:56:15.634Z,100.00
2023-01-20T23:58:43.076Z,100.00
